Airfield :
LOGIN :

Register | Disclaimer

   EN    FR    IT 

 










Legend :    VFR   Marginal VFR   IFR   Intensive IFR   Very Intensive IFR
Visi :
Ceiling :
>= 8 km
>= 3000ft
5 to 8 km
1000 to 3000 ft
1500m to 5 km
500 to 1000 ft
800 to 1500m
200 to 500 ft
< 800m
< 200 ft
Symbols :   Thunderstorms  Fog  Heavy snow  Heavy precipitations  Wind > 20 kt
SIGMETs :     Misc.  Thunderstorms  Icing  Turbulence  Mountain Waves  Volcanic Ashes






- Airport Elevation : 526 ft
- IATA code : LTN


EGGW - London Luton

CURRENT METAR :
  • 031320Z AUTO 23015KT 9999 BKN035 20/11 Q1014

EXPIRED METARs :
  • 031250Z AUTO 23016KT 180V260 9999 BKN033 19/11 Q1015
  • 031220Z AUTO 23015KT 9999 BKN031 18/11 Q1015
  • 031150Z AUTO 23016KT 9999 BKN028 OVC033 18/11 Q1015
  • 031120Z AUTO 23016KT 9999 BKN026 BKN031 18/11 Q1015
  • 031050Z AUTO 23014KT 9999 BKN027 17/11 Q1015

TAF TAF EGGW
Valid from the 03 at 12:00 until the 04 at 12:00 UTC


031103Z 0312/0412 23016G26KT 9999 SCT030
TEMPO 0315/0321 6000 RA
PROB30
TEMPO 0318/0321 BKN014
BECMG 0321/0324 23013KT BKN010
TEMPO 0321/0412 4000 RADZ BKN006
PROB30
TEMPO 0400/0406 23016G26KT
ATIS : +44 1582 395 204



MET'MAP, your aeronautical weather chart ! - Copyright ORBIFLY December 2007 - Disclaimer

ORBIFLY MET'MAP TEAM :

Programming & Development : Alexandra Zaïnal
Concept & original design : Baudouin d'Aumeries
Assistance for programming : Marc-Olivier Méhu
Technical & hardware support : Manuel Goepfert

Contact : metmap@orbifly.com




SOURCES & CREDITS :

   NOAA